OAS8535 SKRG-SKBO
Flight info
| Callsign | OAS8535 |
|---|---|
| Flight time | 0h 30m |
| Altitude | 23000 |
| Route | ISVAT2B ISVAT ISVAT5W |
| Aircraft | A20N/M-SDE2E3FGHIRWXY/LB1 |
Departure
| Time | 2026-04-25 00:48 |
|---|---|
| Airport | Jose Maria Córdova International Airport (SKRG) |
Arrival
| Time | 2026-04-25 01:19 |
|---|---|
| Airport | El Dorado International Airport (SKBO) |
| Time | Latitude | Longitude | Altitude | Speed | Heading |
|---|---|---|---|---|---|
| 2026-04-25 00:06 | 6.17031 | -75.42714 | 6990 ft | 0 kts | 307° |
| 2026-04-25 00:33 | 6.17027 | -75.42709 | 6982 ft | 2 kts | 280° |
| 2026-04-25 00:34 | 6.17029 | -75.42691 | 6990 ft | 3 kts | 256° |
| 2026-04-25 00:34 | 6.17028 | -75.42675 | 6983 ft | 2 kts | 320° |
| 2026-04-25 00:34 | 6.17014 | -75.42670 | 6981 ft | 0 kts | 25° |
| 2026-04-25 00:34 | 6.17013 | -75.42670 | 6981 ft | 0 kts | 39° |
| 2026-04-25 00:35 | 6.17011 | -75.42671 | 6981 ft | 0 kts | 50° |
| 2026-04-25 00:39 | 6.17021 | -75.42659 | 6986 ft | 5 kts | 53° |
| 2026-04-25 00:39 | 6.17028 | -75.42644 | 6985 ft | 2 kts | 64° |
| 2026-04-25 00:39 | 6.17035 | -75.42627 | 6988 ft | 4 kts | 70° |
| 2026-04-25 00:39 | 6.17038 | -75.42602 | 6987 ft | 3 kts | 95° |
| 2026-04-25 00:40 | 6.17021 | -75.42582 | 6984 ft | 5 kts | 137° |
| 2026-04-25 00:40 | 6.16984 | -75.42556 | 6989 ft | 8 kts | 152° |
| 2026-04-25 00:40 | 6.16926 | -75.42525 | 6988 ft | 11 kts | 151° |
| 2026-04-25 00:40 | 6.16846 | -75.42491 | 6987 ft | 14 kts | 171° |
| 2026-04-25 00:41 | 6.16746 | -75.42488 | 6980 ft | 14 kts | 179° |
| 2026-04-25 00:41 | 6.16650 | -75.42486 | 6979 ft | 13 kts | 179° |
| 2026-04-25 00:41 | 6.16564 | -75.42484 | 6981 ft | 12 kts | 179° |
| 2026-04-25 00:41 | 6.16485 | -75.42486 | 6979 ft | 10 kts | 181° |
| 2026-04-25 00:42 | 6.16416 | -75.42487 | 6978 ft | 9 kts | 181° |
| 2026-04-25 00:42 | 6.16357 | -75.42485 | 6977 ft | 8 kts | 177° |
| 2026-04-25 00:42 | 6.16307 | -75.42483 | 6976 ft | 7 kts | 178° |
| 2026-04-25 00:42 | 6.16266 | -75.42482 | 6975 ft | 5 kts | 179° |
| 2026-04-25 00:43 | 6.16234 | -75.42482 | 6974 ft | 4 kts | 179° |
| 2026-04-25 00:43 | 6.16211 | -75.42482 | 6972 ft | 3 kts | 180° |
| 2026-04-25 00:43 | 6.16197 | -75.42482 | 6972 ft | 2 kts | 180° |
| 2026-04-25 00:43 | 6.16155 | -75.42482 | 6973 ft | 10 kts | 180° |
| 2026-04-25 00:44 | 6.16060 | -75.42484 | 6972 ft | 17 kts | 181° |
| 2026-04-25 00:44 | 6.15924 | -75.42482 | 6969 ft | 22 kts | 179° |
| 2026-04-25 00:44 | 6.15758 | -75.42476 | 6967 ft | 24 kts | 179° |
| 2026-04-25 00:44 | 6.15596 | -75.42475 | 6964 ft | 23 kts | 180° |
| 2026-04-25 00:45 | 6.15444 | -75.42474 | 6961 ft | 21 kts | 179° |
| 2026-04-25 00:45 | 6.15300 | -75.42472 | 6958 ft | 20 kts | 179° |
| 2026-04-25 00:45 | 6.15165 | -75.42471 | 6959 ft | 19 kts | 180° |
| 2026-04-25 00:45 | 6.15040 | -75.42470 | 6953 ft | 18 kts | 180° |
| 2026-04-25 00:46 | 6.14930 | -75.42468 | 6951 ft | 13 kts | 169° |
| 2026-04-25 00:46 | 6.14905 | -75.42454 | 6953 ft | 0 kts | 137° |
| 2026-04-25 00:47 | 6.14877 | -75.42397 | 6951 ft | 13 kts | 99° |
| 2026-04-25 00:47 | 6.14915 | -75.42301 | 6950 ft | 7 kts | 40° |
| 2026-04-25 00:47 | 6.14951 | -75.42300 | 6951 ft | 12 kts | 358° |
| 2026-04-25 00:47 | 6.15211 | -75.42297 | 6958 ft | 73 kts | 360° |
| 2026-04-25 00:48 | 6.15969 | -75.42305 | 6969 ft | 146 kts | 359° |
| 2026-04-25 00:48 | 6.17125 | -75.42323 | 7400 ft | 171 kts | 359° |
| 2026-04-25 00:48 | 6.18321 | -75.42340 | 8199 ft | 176 kts | 359° |
| 2026-04-25 00:48 | 6.19566 | -75.42338 | 8916 ft | 188 kts | 359° |
| 2026-04-25 00:49 | 6.20947 | -75.42250 | 9370 ft | 208 kts | 10° |
| 2026-04-25 00:49 | 6.22259 | -75.41567 | 9951 ft | 221 kts | 43° |
| 2026-04-25 00:49 | 6.22929 | -75.40191 | 10647 ft | 226 kts | 82° |
| 2026-04-25 00:49 | 6.22629 | -75.38667 | 11459 ft | 226 kts | 119° |
| 2026-04-25 00:50 | 6.21735 | -75.37363 | 12235 ft | 228 kts | 130° |
| 2026-04-25 00:50 | 6.20719 | -75.36124 | 13001 ft | 233 kts | 131° |
| 2026-04-25 00:50 | 6.19659 | -75.34849 | 13845 ft | 240 kts | 131° |
| 2026-04-25 00:50 | 6.18610 | -75.33568 | 14762 ft | 241 kts | 131° |
| 2026-04-25 00:51 | 6.17499 | -75.32275 | 15655 ft | 242 kts | 138° |
| 2026-04-25 00:51 | 6.16048 | -75.31385 | 16186 ft | 260 kts | 165° |
| 2026-04-25 00:51 | 6.14222 | -75.30839 | 16533 ft | 289 kts | 161° |
| 2026-04-25 00:51 | 6.12251 | -75.30099 | 16871 ft | 316 kts | 160° |
| 2026-04-25 00:52 | 6.10124 | -75.29258 | 17209 ft | 341 kts | 159° |
| 2026-04-25 00:52 | 6.07849 | -75.28336 | 17545 ft | 363 kts | 159° |
| 2026-04-25 00:52 | 6.05468 | -75.27360 | 18064 ft | 375 kts | 159° |
| 2026-04-25 00:52 | 6.03031 | -75.26356 | 18707 ft | 381 kts | 158° |
| 2026-04-25 00:53 | 6.00567 | -75.25339 | 19306 ft | 386 kts | 158° |
| 2026-04-25 00:53 | 5.98101 | -75.24321 | 19920 ft | 390 kts | 158° |
| 2026-04-25 00:53 | 5.95578 | -75.23279 | 20544 ft | 394 kts | 158° |
| 2026-04-25 00:53 | 5.93030 | -75.22227 | 21170 ft | 398 kts | 158° |
| 2026-04-25 00:54 | 5.90452 | -75.21163 | 21805 ft | 403 kts | 158° |
| 2026-04-25 00:54 | 5.87847 | -75.20087 | 22403 ft | 407 kts | 158° |
| 2026-04-25 00:54 | 5.85207 | -75.18998 | 22940 ft | 412 kts | 158° |
| 2026-04-25 00:54 | 5.82553 | -75.17903 | 23187 ft | 413 kts | 158° |
| 2026-04-25 00:55 | 5.79924 | -75.16818 | 23222 ft | 415 kts | 158° |
| 2026-04-25 00:55 | 5.77248 | -75.15714 | 23223 ft | 416 kts | 158° |
| 2026-04-25 00:55 | 5.74572 | -75.14610 | 23223 ft | 417 kts | 158° |
| 2026-04-25 00:55 | 5.71889 | -75.13503 | 23225 ft | 417 kts | 158° |
| 2026-04-25 00:56 | 5.69209 | -75.12397 | 23222 ft | 417 kts | 158° |
| 2026-04-25 00:56 | 5.66527 | -75.11291 | 23221 ft | 416 kts | 158° |
| 2026-04-25 00:56 | 5.63848 | -75.10186 | 23228 ft | 417 kts | 159° |
| 2026-04-25 00:56 | 5.61164 | -75.09080 | 23222 ft | 417 kts | 159° |
| 2026-04-25 00:57 | 5.58486 | -75.07976 | 23218 ft | 417 kts | 158° |
| 2026-04-25 00:57 | 5.55802 | -75.06870 | 23218 ft | 417 kts | 158° |
| 2026-04-25 00:57 | 5.53158 | -75.05780 | 23200 ft | 416 kts | 158° |
| 2026-04-25 00:57 | 5.50490 | -75.04681 | 23193 ft | 414 kts | 158° |
| 2026-04-25 00:58 | 5.47829 | -75.03585 | 23194 ft | 413 kts | 159° |
| 2026-04-25 00:58 | 5.45166 | -75.02488 | 23195 ft | 414 kts | 158° |
| 2026-04-25 00:58 | 5.42502 | -75.01391 | 23183 ft | 414 kts | 158° |
| 2026-04-25 00:58 | 5.39834 | -75.00292 | 23184 ft | 415 kts | 159° |
| 2026-04-25 00:59 | 5.37169 | -74.99182 | 23015 ft | 415 kts | 158° |
| 2026-04-25 00:59 | 5.34509 | -74.98058 | 22985 ft | 415 kts | 158° |
| 2026-04-25 00:59 | 5.31850 | -74.96931 | 22957 ft | 414 kts | 158° |
| 2026-04-25 00:59 | 5.29196 | -74.95806 | 22932 ft | 414 kts | 158° |
| 2026-04-25 01:00 | 5.26540 | -74.94681 | 22909 ft | 414 kts | 158° |
| 2026-04-25 01:00 | 5.23926 | -74.93574 | 22911 ft | 414 kts | 158° |
| 2026-04-25 01:00 | 5.21391 | -74.92245 | 22872 ft | 404 kts | 145° |
| 2026-04-25 01:00 | 5.19466 | -74.90310 | 22623 ft | 383 kts | 126° |
| 2026-04-25 01:01 | 5.17939 | -74.88223 | 22420 ft | 361 kts | 133° |
| 2026-04-25 01:01 | 5.15996 | -74.86711 | 21859 ft | 351 kts | 154° |
| 2026-04-25 01:01 | 5.13695 | -74.86009 | 21151 ft | 345 kts | 175° |
| 2026-04-25 01:01 | 5.11303 | -74.85923 | 20448 ft | 343 kts | 181° |
| 2026-04-25 01:02 | 5.08930 | -74.85964 | 19829 ft | 339 kts | 183° |
| 2026-04-25 01:02 | 5.06611 | -74.86003 | 19225 ft | 336 kts | 182° |
| 2026-04-25 01:02 | 5.04289 | -74.86048 | 18664 ft | 332 kts | 183° |
| 2026-04-25 01:02 | 5.01991 | -74.86093 | 18242 ft | 329 kts | 182° |
| 2026-04-25 01:03 | 4.99698 | -74.86150 | 17825 ft | 329 kts | 183° |
| 2026-04-25 01:03 | 4.97413 | -74.86193 | 17724 ft | 327 kts | 183° |
| 2026-04-25 01:03 | 4.95141 | -74.86230 | 17740 ft | 327 kts | 182° |
| 2026-04-25 01:03 | 4.92867 | -74.86265 | 17761 ft | 326 kts | 182° |
| 2026-04-25 01:04 | 4.90599 | -74.86307 | 17828 ft | 326 kts | 182° |
| 2026-04-25 01:04 | 4.88335 | -74.86355 | 17827 ft | 325 kts | 182° |
| 2026-04-25 01:04 | 4.86074 | -74.86407 | 17816 ft | 325 kts | 183° |
| 2026-04-25 01:04 | 4.83849 | -74.86450 | 17413 ft | 323 kts | 184° |
| 2026-04-25 01:05 | 4.81602 | -74.86355 | 16979 ft | 324 kts | 174° |
| 2026-04-25 01:05 | 4.79440 | -74.85739 | 16813 ft | 325 kts | 155° |
| 2026-04-25 01:05 | 4.77586 | -74.84419 | 16798 ft | 333 kts | 133° |
| 2026-04-25 01:05 | 4.76395 | -74.82438 | 16801 ft | 335 kts | 107° |
| 2026-04-25 01:06 | 4.76162 | -74.80134 | 16799 ft | 334 kts | 82° |
| 2026-04-25 01:06 | 4.76922 | -74.77958 | 16794 ft | 332 kts | 56° |
| 2026-04-25 01:06 | 4.78492 | -74.76304 | 16787 ft | 328 kts | 31° |
| 2026-04-25 01:06 | 4.80571 | -74.75403 | 16794 ft | 327 kts | 11° |
| 2026-04-25 01:07 | 4.82793 | -74.75232 | 16793 ft | 325 kts | 357° |
| 2026-04-25 01:07 | 4.85056 | -74.75323 | 16791 ft | 325 kts | 355° |
| 2026-04-25 01:07 | 4.87315 | -74.75441 | 16819 ft | 325 kts | 355° |
| 2026-04-25 01:07 | 4.89581 | -74.75546 | 16819 ft | 326 kts | 356° |
| 2026-04-25 01:08 | 4.91845 | -74.75637 | 16787 ft | 325 kts | 355° |
| 2026-04-25 01:08 | 4.94105 | -74.75670 | 16275 ft | 325 kts | 2° |
| 2026-04-25 01:08 | 4.96331 | -74.75272 | 15749 ft | 326 kts | 16° |
| 2026-04-25 01:08 | 4.98337 | -74.74227 | 15256 ft | 327 kts | 36° |
| 2026-04-25 01:09 | 4.99823 | -74.72526 | 14796 ft | 326 kts | 59° |
| 2026-04-25 01:09 | 5.00535 | -74.70382 | 14318 ft | 326 kts | 84° |
| 2026-04-25 01:09 | 5.00358 | -74.68165 | 13893 ft | 324 kts | 104° |
| 2026-04-25 01:09 | 4.99695 | -74.66027 | 13454 ft | 319 kts | 109° |
| 2026-04-25 01:10 | 4.98954 | -74.63938 | 13045 ft | 319 kts | 109° |
| 2026-04-25 01:10 | 4.98175 | -74.61750 | 12841 ft | 346 kts | 109° |
| 2026-04-25 01:10 | 4.97367 | -74.59426 | 12845 ft | 356 kts | 109° |
| 2026-04-25 01:10 | 4.96565 | -74.57080 | 12851 ft | 356 kts | 109° |
| 2026-04-25 01:11 | 4.95764 | -74.54727 | 12861 ft | 356 kts | 109° |
| 2026-04-25 01:11 | 4.94980 | -74.52427 | 12852 ft | 337 kts | 109° |
| 2026-04-25 01:11 | 4.94245 | -74.50272 | 12865 ft | 318 kts | 109° |
| 2026-04-25 01:11 | 4.93537 | -74.48202 | 12905 ft | 312 kts | 109° |
| 2026-04-25 01:12 | 4.92837 | -74.46152 | 12898 ft | 310 kts | 109° |
| 2026-04-25 01:12 | 4.92147 | -74.44128 | 12901 ft | 311 kts | 109° |
| 2026-04-25 01:12 | 4.91321 | -74.42127 | 12903 ft | 312 kts | 120° |
| 2026-04-25 01:12 | 4.89956 | -74.40449 | 12915 ft | 311 kts | 137° |
| 2026-04-25 01:13 | 4.88335 | -74.39023 | 12812 ft | 308 kts | 141° |
| 2026-04-25 01:13 | 4.86780 | -74.37567 | 12323 ft | 302 kts | 131° |
| 2026-04-25 01:13 | 4.85477 | -74.35974 | 12015 ft | 287 kts | 127° |
| 2026-04-25 01:13 | 4.84317 | -74.34458 | 12013 ft | 257 kts | 127° |
| 2026-04-25 01:14 | 4.83321 | -74.33142 | 12007 ft | 220 kts | 127° |
| 2026-04-25 01:14 | 4.82457 | -74.31996 | 12004 ft | 198 kts | 127° |
| 2026-04-25 01:14 | 4.81596 | -74.30854 | 12000 ft | 212 kts | 126° |
| 2026-04-25 01:14 | 4.80665 | -74.29681 | 11891 ft | 215 kts | 128° |
| 2026-04-25 01:15 | 4.79773 | -74.28528 | 11483 ft | 210 kts | 126° |
| 2026-04-25 01:15 | 4.78893 | -74.27355 | 10976 ft | 210 kts | 126° |
| 2026-04-25 01:15 | 4.78024 | -74.26202 | 10633 ft | 202 kts | 126° |
| 2026-04-25 01:15 | 4.77202 | -74.25117 | 10403 ft | 189 kts | 126° |
| 2026-04-25 01:16 | 4.76437 | -74.24100 | 10199 ft | 175 kts | 127° |
| 2026-04-25 01:16 | 4.75739 | -74.23172 | 9975 ft | 160 kts | 127° |
| 2026-04-25 01:16 | 4.75098 | -74.22319 | 9764 ft | 148 kts | 127° |
| 2026-04-25 01:16 | 4.74487 | -74.21508 | 9563 ft | 144 kts | 127° |
| 2026-04-25 01:17 | 4.73884 | -74.20705 | 9361 ft | 144 kts | 127° |
| 2026-04-25 01:17 | 4.73278 | -74.19899 | 9152 ft | 145 kts | 127° |
| 2026-04-25 01:17 | 4.72675 | -74.19097 | 8942 ft | 147 kts | 127° |
| 2026-04-25 01:17 | 4.72057 | -74.18278 | 8747 ft | 147 kts | 127° |
| 2026-04-25 01:18 | 4.71444 | -74.17459 | 8551 ft | 147 kts | 127° |
| 2026-04-25 01:18 | 4.70834 | -74.16635 | 8382 ft | 145 kts | 126° |
| 2026-04-25 01:18 | 4.70282 | -74.15903 | 8363 ft | 110 kts | 127° |
| 2026-04-25 01:18 | 4.69950 | -74.15464 | 8365 ft | 62 kts | 127° |
| 2026-04-25 01:19 | 4.69722 | -74.15083 | 8364 ft | 56 kts | 101° |
| 2026-04-25 01:19 | 4.69695 | -74.14900 | 8364 ft | 0 kts | 98° |
| 2026-04-25 01:22 | 4.69694 | -74.14875 | 8364 ft | 7 kts | 79° |
| 2026-04-25 01:22 | 4.69735 | -74.14823 | 8364 ft | 13 kts | 42° |
| 2026-04-25 01:22 | 4.69811 | -74.14763 | 8365 ft | 18 kts | 32° |
| 2026-04-25 01:23 | 4.69877 | -74.14704 | 8365 ft | 0 kts | 68° |
| 2026-04-25 01:23 | 4.69870 | -74.14669 | 8365 ft | 6 kts | 126° |
| 2026-04-25 01:23 | 4.69808 | -74.14633 | 8365 ft | 1 kts | 214° |
| 2026-04-25 01:23 | 4.69808 | -74.14635 | 8365 ft | 0 kts | 243° |
| 2026-04-25 01:24 | 4.69805 | -74.14660 | 8365 ft | 9 kts | 262° |
| 2026-04-25 01:24 | 4.69786 | -74.14699 | 8365 ft | 4 kts | 220° |
| 2026-04-25 01:24 | 4.69784 | -74.14701 | 8365 ft | 0 kts | 220° |